sensor_id;sensor_type;location;lat;lon;timestamp;temperature;humidity
65854;DHT22;52627;48.838;2.402;2024-02-14T00:00:47;11.48;76.63
65854;DHT22;52627;48.838;2.402;2024-02-14T00:03:14;11.50;76.70
65854;DHT22;52627;48.838;2.402;2024-02-14T00:05:42;11.50;76.75
65854;DHT22;52627;48.838;2.402;2024-02-14T00:08:09;11.49;76.80
65854;DHT22;52627;48.838;2.402;2024-02-14T00:10:38;11.50;76.88
65854;DHT22;52627;48.838;2.402;2024-02-14T00:13:06;11.49;76.90
65854;DHT22;52627;48.838;2.402;2024-02-14T00:15:35;11.50;76.97
65854;DHT22;52627;48.838;2.402;2024-02-14T00:18:03;11.50;77.04
65854;DHT22;52627;48.838;2.402;2024-02-14T00:20:32;11.51;77.10
65854;DHT22;52627;48.838;2.402;2024-02-14T00:23:00;11.51;77.14
65854;DHT22;52627;48.838;2.402;2024-02-14T00:25:28;11.52;77.19
65854;DHT22;52627;48.838;2.402;2024-02-14T00:27:57;11.55;77.20
65854;DHT22;52627;48.838;2.402;2024-02-14T00:30:28;11.56;77.28
65854;DHT22;52627;48.838;2.402;2024-02-14T00:32:57;11.58;77.31
65854;DHT22;52627;48.838;2.402;2024-02-14T00:35:25;11.57;77.39
65854;DHT22;52627;48.838;2.402;2024-02-14T00:37:53;11.57;77.44
65854;DHT22;52627;48.838;2.402;2024-02-14T00:40:20;11.57;77.53
65854;DHT22;52627;48.838;2.402;2024-02-14T00:42:48;11.57;77.60
65854;DHT22;52627;48.838;2.402;2024-02-14T00:45:16;11.57;77.68
65854;DHT22;52627;48.838;2.402;2024-02-14T00:47:43;11.56;77.74
65854;DHT22;52627;48.838;2.402;2024-02-14T00:50:11;11.57;77.80
65854;DHT22;52627;48.838;2.402;2024-02-14T00:52:41;11.57;77.87
65854;DHT22;52627;48.838;2.402;2024-02-14T00:55:10;11.57;77.90
65854;DHT22;52627;48.838;2.402;2024-02-14T00:57:38;11.58;77.96
65854;DHT22;52627;48.838;2.402;2024-02-14T01:00:06;11.60;78.00
65854;DHT22;52627;48.838;2.402;2024-02-14T01:02:34;11.61;78.10
65854;DHT22;52627;48.838;2.402;2024-02-14T01:05:02;11.61;78.15
65854;DHT22;52627;48.838;2.402;2024-02-14T01:07:31;11.61;78.20
65854;DHT22;52627;48.838;2.402;2024-02-14T01:09:59;11.61;78.26
65854;DHT22;52627;48.838;2.402;2024-02-14T01:12:26;11.60;78.33
65854;DHT22;52627;48.838;2.402;2024-02-14T01:14:55;11.60;78.39
65854;DHT22;52627;48.838;2.402;2024-02-14T01:17:22;11.58;78.47
65854;DHT22;52627;48.838;2.402;2024-02-14T01:19:50;11.60;78.52
65854;DHT22;52627;48.838;2.402;2024-02-14T01:22:18;11.60;78.58
65854;DHT22;52627;48.838;2.402;2024-02-14T01:24:48;11.61;78.61
65854;DHT22;52627;48.838;2.402;2024-02-14T01:27:16;11.61;78.67
65854;DHT22;52627;48.838;2.402;2024-02-14T01:29:44;11.62;78.72
65854;DHT22;52627;48.838;2.402;2024-02-14T01:32:11;11.62;78.79
65854;DHT22;52627;48.838;2.402;2024-02-14T01:34:39;11.62;78.83
65854;DHT22;52627;48.838;2.402;2024-02-14T01:37:06;11.62;78.90
65854;DHT22;52627;48.838;2.402;2024-02-14T01:39:37;11.63;78.91
65854;DHT22;52627;48.838;2.402;2024-02-14T01:42:04;11.63;78.98
65854;DHT22;52627;48.838;2.402;2024-02-14T01:44:34;11.64;79.00
65854;DHT22;52627;48.838;2.402;2024-02-14T01:47:03;11.65;79.02
65854;DHT22;52627;48.838;2.402;2024-02-14T01:49:31;11.65;79.10
65854;DHT22;52627;48.838;2.402;2024-02-14T01:51:59;11.66;79.13
65854;DHT22;52627;48.838;2.402;2024-02-14T01:54:30;11.67;79.18
65854;DHT22;52627;48.838;2.402;2024-02-14T01:56:58;11.67;79.20
65854;DHT22;52627;48.838;2.402;2024-02-14T01:59:27;11.68;79.21
65854;DHT22;52627;48.838;2.402;2024-02-14T02:01:55;11.69;79.30
65854;DHT22;52627;48.838;2.402;2024-02-14T02:04:23;11.70;79.30
65854;DHT22;52627;48.838;2.402;2024-02-14T02:06:51;11.72;79.31
65854;DHT22;52627;48.838;2.402;2024-02-14T02:09:23;11.71;79.39
65854;DHT22;52627;48.838;2.402;2024-02-14T02:11:51;11.74;79.40
65854;DHT22;52627;48.838;2.402;2024-02-14T02:14:28;11.73;79.41
65854;DHT22;52627;48.838;2.402;2024-02-14T02:16:57;11.74;79.46
65854;DHT22;52627;48.838;2.402;2024-02-14T02:19:25;11.75;79.50
65854;DHT22;52627;48.838;2.402;2024-02-14T02:21:52;11.76;79.53
65854;DHT22;52627;48.838;2.402;2024-02-14T02:24:20;11.77;79.59
65854;DHT22;52627;48.838;2.402;2024-02-14T02:26:47;11.77;79.61
65854;DHT22;52627;48.838;2.402;2024-02-14T02:29:15;11.78;79.69
65854;DHT22;52627;48.838;2.402;2024-02-14T02:31:43;11.78;79.72
65854;DHT22;52627;48.838;2.402;2024-02-14T02:34:13;11.76;79.80
65854;DHT22;52627;48.838;2.402;2024-02-14T02:36:41;11.77;79.81
65854;DHT22;52627;48.838;2.402;2024-02-14T02:39:11;11.79;79.89
65854;DHT22;52627;48.838;2.402;2024-02-14T02:41:41;11.81;79.91
65854;DHT22;52627;48.838;2.402;2024-02-14T02:44:08;11.81;79.97
65854;DHT22;52627;48.838;2.402;2024-02-14T02:46:36;11.82;80.03
65854;DHT22;52627;48.838;2.402;2024-02-14T02:49:03;11.83;80.10
65854;DHT22;52627;48.838;2.402;2024-02-14T02:51:31;11.83;80.16
65854;DHT22;52627;48.838;2.402;2024-02-14T02:53:59;11.83;80.25
65854;DHT22;52627;48.838;2.402;2024-02-14T02:56:26;11.83;80.31
65854;DHT22;52627;48.838;2.402;2024-02-14T02:58:55;11.84;80.38
65854;DHT22;52627;48.838;2.402;2024-02-14T03:01:23;11.82;80.46
65854;DHT22;52627;48.838;2.402;2024-02-14T03:03:52;11.81;80.51
65854;DHT22;52627;48.838;2.402;2024-02-14T03:06:20;11.81;80.59
65854;DHT22;52627;48.838;2.402;2024-02-14T03:08:47;11.81;80.67
65854;DHT22;52627;48.838;2.402;2024-02-14T03:11:16;11.81;80.72
65854;DHT22;52627;48.838;2.402;2024-02-14T03:13:44;11.81;80.79
65854;DHT22;52627;48.838;2.402;2024-02-14T03:16:12;11.81;80.83
65854;DHT22;52627;48.838;2.402;2024-02-14T03:18:42;11.80;80.90
65854;DHT22;52627;48.838;2.402;2024-02-14T03:21:09;11.81;80.94
65854;DHT22;52627;48.838;2.402;2024-02-14T03:23:38;11.81;80.99
65854;DHT22;52627;48.838;2.402;2024-02-14T03:26:08;11.81;80.99
65854;DHT22;52627;48.838;2.402;2024-02-14T03:28:36;11.82;81.00
65854;DHT22;52627;48.838;2.402;2024-02-14T03:31:03;11.83;81.04
65854;DHT22;52627;48.838;2.402;2024-02-14T03:33:31;11.84;81.10
65854;DHT22;52627;48.838;2.402;2024-02-14T03:35:59;11.83;81.10
65854;DHT22;52627;48.838;2.402;2024-02-14T03:38:29;11.84;81.10
65854;DHT22;52627;48.838;2.402;2024-02-14T03:40:58;11.85;81.15
65854;DHT22;52627;48.838;2.402;2024-02-14T03:43:26;11.85;81.20
65854;DHT22;52627;48.838;2.402;2024-02-14T03:45:55;11.85;81.20
65854;DHT22;52627;48.838;2.402;2024-02-14T03:48:23;11.88;81.21
65854;DHT22;52627;48.838;2.402;2024-02-14T03:50:51;11.88;81.23
65854;DHT22;52627;48.838;2.402;2024-02-14T03:53:19;11.89;81.30
65854;DHT22;52627;48.838;2.402;2024-02-14T03:55:46;11.91;81.30
65854;DHT22;52627;48.838;2.402;2024-02-14T03:58:14;11.92;81.30
65854;DHT22;52627;48.838;2.402;2024-02-14T04:00:44;11.91;81.31
65854;DHT22;52627;48.838;2.402;2024-02-14T04:03:12;11.92;81.40
65854;DHT22;52627;48.838;2.402;2024-02-14T04:05:40;11.92;81.46
65854;DHT22;52627;48.838;2.402;2024-02-14T04:08:07;11.92;81.48
65854;DHT22;52627;48.838;2.402;2024-02-14T04:10:37;11.93;81.50
65854;DHT22;52627;48.838;2.402;2024-02-14T04:13:05;11.94;81.51
65854;DHT22;52627;48.838;2.402;2024-02-14T04:15:35;11.96;81.56
65854;DHT22;52627;48.838;2.402;2024-02-14T04:18:03;11.95;81.60
65854;DHT22;52627;48.838;2.402;2024-02-14T04:20:34;11.96;81.60
65854;DHT22;52627;48.838;2.402;2024-02-14T04:23:03;11.96;81.65
65854;DHT22;52627;48.838;2.402;2024-02-14T04:25:33;11.96;81.70
65854;DHT22;52627;48.838;2.402;2024-02-14T04:28:03;11.98;81.70
65854;DHT22;52627;48.838;2.402;2024-02-14T04:30:31;11.98;81.76
65854;DHT22;52627;48.838;2.402;2024-02-14T04:32:58;11.99;81.80
65854;DHT22;52627;48.838;2.402;2024-02-14T04:35:28;11.99;81.80
65854;DHT22;52627;48.838;2.402;2024-02-14T04:37:55;11.99;81.86
65854;DHT22;52627;48.838;2.402;2024-02-14T04:40:24;11.99;81.90
65854;DHT22;52627;48.838;2.402;2024-02-14T04:42:51;11.99;81.91
65854;DHT22;52627;48.838;2.402;2024-02-14T04:45:19;11.99;81.93
65854;DHT22;52627;48.838;2.402;2024-02-14T04:47:47;11.99;82.00
65854;DHT22;52627;48.838;2.402;2024-02-14T04:50:15;11.99;81.99
65854;DHT22;52627;48.838;2.402;2024-02-14T04:52:42;11.97;82.04
65854;DHT22;52627;48.838;2.402;2024-02-14T04:55:10;11.97;82.10
65854;DHT22;52627;48.838;2.402;2024-02-14T04:57:38;11.99;82.10
65854;DHT22;52627;48.838;2.402;2024-02-14T05:00:06;12.00;82.10
65854;DHT22;52627;48.838;2.402;2024-02-14T05:02:48;12.01;82.11
65854;DHT22;52627;48.838;2.402;2024-02-14T05:05:17;12.02;82.19
65854;DHT22;52627;48.838;2.402;2024-02-14T05:07:45;12.03;82.20
65854;DHT22;52627;48.838;2.402;2024-02-14T05:10:13;12.05;82.20
65854;DHT22;52627;48.838;2.402;2024-02-14T05:12:41;12.06;82.23
65854;DHT22;52627;48.838;2.402;2024-02-14T05:15:10;12.04;82.30
65854;DHT22;52627;48.838;2.402;2024-02-14T05:17:49;12.05;82.34
65854;DHT22;52627;48.838;2.402;2024-02-14T05:20:17;12.07;82.40
65854;DHT22;52627;48.838;2.402;2024-02-14T05:22:59;12.08;82.40
65854;DHT22;52627;48.838;2.402;2024-02-14T05:25:27;12.08;82.43
65854;DHT22;52627;48.838;2.402;2024-02-14T05:27:56;12.09;82.47
65854;DHT22;52627;48.838;2.402;2024-02-14T05:30:24;12.10;82.50
65854;DHT22;52627;48.838;2.402;2024-02-14T05:32:54;12.12;82.53
65854;DHT22;52627;48.838;2.402;2024-02-14T05:35:22;12.13;82.60
65854;DHT22;52627;48.838;2.402;2024-02-14T05:37:50;12.13;82.61
65854;DHT22;52627;48.838;2.402;2024-02-14T05:40:18;12.13;82.69
65854;DHT22;52627;48.838;2.402;2024-02-14T05:42:45;12.12;82.70
65854;DHT22;52627;48.838;2.402;2024-02-14T05:45:13;12.12;82.75
65854;DHT22;52627;48.838;2.402;2024-02-14T05:47:42;12.12;82.79
65854;DHT22;52627;48.838;2.402;2024-02-14T05:50:10;12.12;82.80
65854;DHT22;52627;48.838;2.402;2024-02-14T05:52:38;12.12;82.84
65854;DHT22;52627;48.838;2.402;2024-02-14T05:55:06;12.11;82.90
65854;DHT22;52627;48.838;2.402;2024-02-14T05:57:56;12.11;82.91
65854;DHT22;52627;48.838;2.402;2024-02-14T06:00:24;12.12;82.99
65854;DHT22;52627;48.838;2.402;2024-02-14T06:02:55;12.11;83.00
65854;DHT22;52627;48.838;2.402;2024-02-14T06:05:23;12.11;83.08
65854;DHT22;52627;48.838;2.402;2024-02-14T06:07:51;12.10;83.10
65854;DHT22;52627;48.838;2.402;2024-02-14T06:10:18;12.10;83.19
65854;DHT22;52627;48.838;2.402;2024-02-14T06:12:46;12.10;83.20
65854;DHT22;52627;48.838;2.402;2024-02-14T06:15:15;12.11;83.26
65854;DHT22;52627;48.838;2.402;2024-02-14T06:17:43;12.11;83.30
65854;DHT22;52627;48.838;2.402;2024-02-14T06:20:11;12.12;83.30
65854;DHT22;52627;48.838;2.402;2024-02-14T06:22:40;12.14;83.31
65854;DHT22;52627;48.838;2.402;2024-02-14T06:25:19;12.14;83.39
65854;DHT22;52627;48.838;2.402;2024-02-14T06:27:47;12.14;83.42
65854;DHT22;52627;48.838;2.402;2024-02-14T06:30:15;12.14;83.47
65854;DHT22;52627;48.838;2.402;2024-02-14T06:32:45;12.16;83.50
65854;DHT22;52627;48.838;2.402;2024-02-14T06:35:13;12.17;83.56
65854;DHT22;52627;48.838;2.402;2024-02-14T06:37:44;12.18;83.60
65854;DHT22;52627;48.838;2.402;2024-02-14T06:40:25;12.20;83.60
65854;DHT22;52627;48.838;2.402;2024-02-14T06:42:54;12.23;83.60
65854;DHT22;52627;48.838;2.402;2024-02-14T06:45:22;12.26;83.64
65854;DHT22;52627;48.838;2.402;2024-02-14T06:47:50;12.27;83.68
65854;DHT22;52627;48.838;2.402;2024-02-14T06:50:17;12.28;83.70
65854;DHT22;52627;48.838;2.402;2024-02-14T06:52:45;12.30;83.70
65854;DHT22;52627;48.838;2.402;2024-02-14T06:55:13;12.32;83.70
65854;DHT22;52627;48.838;2.402;2024-02-14T06:57:40;12.33;83.76
65854;DHT22;52627;48.838;2.402;2024-02-14T07:00:08;12.36;83.75
65854;DHT22;52627;48.838;2.402;2024-02-14T07:02:36;12.38;83.80
65854;DHT22;52627;48.838;2.402;2024-02-14T07:05:04;12.39;83.80
65854;DHT22;52627;48.838;2.402;2024-02-14T07:07:34;12.40;83.80
65854;DHT22;52627;48.838;2.402;2024-02-14T07:10:02;12.42;83.80
65854;DHT22;52627;48.838;2.402;2024-02-14T07:12:29;12.42;83.85
65854;DHT22;52627;48.838;2.402;2024-02-14T07:14:58;12.45;83.90
65854;DHT22;52627;48.838;2.402;2024-02-14T07:17:26;12.46;83.92
65854;DHT22;52627;48.838;2.402;2024-02-14T07:19:54;12.49;83.94
65854;DHT22;52627;48.838;2.402;2024-02-14T07:22:22;12.51;83.98
65854;DHT22;52627;48.838;2.402;2024-02-14T07:24:49;12.52;84.00
65854;DHT22;52627;48.838;2.402;2024-02-14T07:27:17;12.53;84.00
65854;DHT22;52627;48.838;2.402;2024-02-14T07:29:44;12.55;84.00
65854;DHT22;52627;48.838;2.402;2024-02-14T07:32:12;12.56;84.00
65854;DHT22;52627;48.838;2.402;2024-02-14T07:34:40;12.57;84.01
65854;DHT22;52627;48.838;2.402;2024-02-14T07:37:08;12.58;84.01
65854;DHT22;52627;48.838;2.402;2024-02-14T07:39:35;12.60;84.02
65854;DHT22;52627;48.838;2.402;2024-02-14T07:42:03;12.61;84.02
65854;DHT22;52627;48.838;2.402;2024-02-14T07:44:31;12.62;84.01
65854;DHT22;52627;48.838;2.402;2024-02-14T07:46:59;12.63;84.05
65854;DHT22;52627;48.838;2.402;2024-02-14T07:49:30;12.64;84.08
65854;DHT22;52627;48.838;2.402;2024-02-14T07:51:58;12.64;84.09
65854;DHT22;52627;48.838;2.402;2024-02-14T07:54:25;12.65;84.10
65854;DHT22;52627;48.838;2.402;2024-02-14T07:56:53;12.68;84.10
65854;DHT22;52627;48.838;2.402;2024-02-14T07:59:21;12.70;84.10
65854;DHT22;52627;48.838;2.402;2024-02-14T08:01:48;12.71;84.10
65854;DHT22;52627;48.838;2.402;2024-02-14T08:04:16;12.73;84.10
65854;DHT22;52627;48.838;2.402;2024-02-14T08:06:47;12.76;84.09
65854;DHT22;52627;48.838;2.402;2024-02-14T08:09:17;12.79;84.10
65854;DHT22;52627;48.838;2.402;2024-02-14T08:11:45;12.81;84.10
65854;DHT22;52627;48.838;2.402;2024-02-14T08:14:12;12.83;84.10
65854;DHT22;52627;48.838;2.402;2024-02-14T08:16:40;12.84;84.10
65854;DHT22;52627;48.838;2.402;2024-02-14T08:19:07;12.87;84.10
65854;DHT22;52627;48.838;2.402;2024-02-14T08:21:35;12.88;84.10
65854;DHT22;52627;48.838;2.402;2024-02-14T08:24:03;12.90;84.10
65854;DHT22;52627;48.838;2.402;2024-02-14T08:26:32;12.93;84.10
65854;DHT22;52627;48.838;2.402;2024-02-14T08:29:00;12.96;84.10
65854;DHT22;52627;48.838;2.402;2024-02-14T08:31:28;13.00;84.09
65854;DHT22;52627;48.838;2.402;2024-02-14T08:33:55;13.01;84.07
65854;DHT22;52627;48.838;2.402;2024-02-14T08:36:23;13.04;84.07
65854;DHT22;52627;48.838;2.402;2024-02-14T08:38:50;13.05;84.07
65854;DHT22;52627;48.838;2.402;2024-02-14T08:41:18;13.08;84.04
65854;DHT22;52627;48.838;2.402;2024-02-14T08:43:46;13.10;84.03
65854;DHT22;52627;48.838;2.402;2024-02-14T08:46:14;13.13;84.03
65854;DHT22;52627;48.838;2.402;2024-02-14T08:48:44;13.16;84.00
65854;DHT22;52627;48.838;2.402;2024-02-14T08:51:16;13.19;84.00
65854;DHT22;52627;48.838;2.402;2024-02-14T08:53:44;13.21;84.00
65854;DHT22;52627;48.838;2.402;2024-02-14T08:56:13;13.24;83.99
65854;DHT22;52627;48.838;2.402;2024-02-14T08:58:42;13.26;83.99
65854;DHT22;52627;48.838;2.402;2024-02-14T09:01:11;13.28;83.95
65854;DHT22;52627;48.838;2.402;2024-02-14T09:03:42;13.31;83.93
65854;DHT22;52627;48.838;2.402;2024-02-14T09:06:17;13.32;83.90
65854;DHT22;52627;48.838;2.402;2024-02-14T09:08:48;13.34;83.88
65854;DHT22;52627;48.838;2.402;2024-02-14T09:11:20;13.36;83.88
65854;DHT22;52627;48.838;2.402;2024-02-14T09:13:49;13.38;83.84
65854;DHT22;52627;48.838;2.402;2024-02-14T09:16:21;13.39;83.81
65854;DHT22;52627;48.838;2.402;2024-02-14T09:18:50;13.40;83.80
65854;DHT22;52627;48.838;2.402;2024-02-14T09:21:18;13.43;83.80
65854;DHT22;52627;48.838;2.402;2024-02-14T09:23:47;13.45;83.80
65854;DHT22;52627;48.838;2.402;2024-02-14T09:26:15;13.47;83.80
65854;DHT22;52627;48.838;2.402;2024-02-14T09:28:45;13.49;83.80
65854;DHT22;52627;48.838;2.402;2024-02-14T09:31:17;13.50;83.80
65854;DHT22;52627;48.838;2.402;2024-02-14T09:33:47;13.51;83.80
65854;DHT22;52627;48.838;2.402;2024-02-14T09:36:16;13.53;83.77
65854;DHT22;52627;48.838;2.402;2024-02-14T09:38:44;13.54;83.76
65854;DHT22;52627;48.838;2.402;2024-02-14T09:41:14;13.57;83.72
65854;DHT22;52627;48.838;2.402;2024-02-14T09:43:53;13.59;83.70
65854;DHT22;52627;48.838;2.402;2024-02-14T09:46:21;13.61;83.70
65854;DHT22;52627;48.838;2.402;2024-02-14T09:48:53;13.64;83.70
65854;DHT22;52627;48.838;2.402;2024-02-14T09:51:21;13.65;83.68
65854;DHT22;52627;48.838;2.402;2024-02-14T09:53:48;13.68;83.60
65854;DHT22;52627;48.838;2.402;2024-02-14T09:56:21;13.68;83.60
65854;DHT22;52627;48.838;2.402;2024-02-14T09:58:52;13.69;83.56
65854;DHT22;52627;48.838;2.402;2024-02-14T10:01:24;13.71;83.59
65854;DHT22;52627;48.838;2.402;2024-02-14T10:03:54;13.73;83.55
65854;DHT22;52627;48.838;2.402;2024-02-14T10:06:22;13.75;83.50
65854;DHT22;52627;48.838;2.402;2024-02-14T10:08:51;13.77;83.50
65854;DHT22;52627;48.838;2.402;2024-02-14T10:11:33;13.79;83.45
65854;DHT22;52627;48.838;2.402;2024-02-14T10:14:01;13.80;83.41
65854;DHT22;52627;48.838;2.402;2024-02-14T10:16:31;13.82;83.40
65854;DHT22;52627;48.838;2.402;2024-02-14T10:18:59;13.82;83.32
65854;DHT22;52627;48.838;2.402;2024-02-14T10:21:27;13.82;83.30
65854;DHT22;52627;48.838;2.402;2024-02-14T10:23:58;13.85;83.30
65854;DHT22;52627;48.838;2.402;2024-02-14T10:26:28;13.87;83.25
65854;DHT22;52627;48.838;2.402;2024-02-14T10:28:57;13.89;83.20
65854;DHT22;52627;48.838;2.402;2024-02-14T10:31:25;13.89;83.17
65854;DHT22;52627;48.838;2.402;2024-02-14T10:33:54;13.90;83.14
65854;DHT22;52627;48.838;2.402;2024-02-14T10:36:23;13.90;83.11
65854;DHT22;52627;48.838;2.402;2024-02-14T10:38:52;13.90;83.10
65854;DHT22;52627;48.838;2.402;2024-02-14T10:41:20;13.90;83.07
65854;DHT22;52627;48.838;2.402;2024-02-14T10:43:48;13.90;83.02
65854;DHT22;52627;48.838;2.402;2024-02-14T10:46:19;13.92;83.05
65854;DHT22;52627;48.838;2.402;2024-02-14T10:48:53;13.94;83.00
65854;DHT22;52627;48.838;2.402;2024-02-14T10:51:26;13.95;82.99
65854;DHT22;52627;48.838;2.402;2024-02-14T10:54:00;13.97;82.95
65854;DHT22;52627;48.838;2.402;2024-02-14T10:56:33;14.00;82.92
65854;DHT22;52627;48.838;2.402;2024-02-14T10:59:02;14.03;82.90
65854;DHT22;52627;48.838;2.402;2024-02-14T11:01:30;14.05;82.90
65854;DHT22;52627;48.838;2.402;2024-02-14T11:04:00;14.06;82.90
65854;DHT22;52627;48.838;2.402;2024-02-14T11:06:29;14.06;82.88
65854;DHT22;52627;48.838;2.402;2024-02-14T11:08:57;14.07;82.89
65854;DHT22;52627;48.838;2.402;2024-02-14T11:11:27;14.07;82.90
65854;DHT22;52627;48.838;2.402;2024-02-14T11:13:58;14.08;82.88
65854;DHT22;52627;48.838;2.402;2024-02-14T11:16:25;14.08;82.85
65854;DHT22;52627;48.838;2.402;2024-02-14T11:19:12;14.09;82.84
65854;DHT22;52627;48.838;2.402;2024-02-14T11:21:41;14.11;82.80
65854;DHT22;52627;48.838;2.402;2024-02-14T11:24:13;14.12;82.80
65854;DHT22;52627;48.838;2.402;2024-02-14T11:26:48;14.13;82.80
65854;DHT22;52627;48.838;2.402;2024-02-14T11:29:20;14.14;82.80
65854;DHT22;52627;48.838;2.402;2024-02-14T11:31:59;14.15;82.79
65854;DHT22;52627;48.838;2.402;2024-02-14T11:34:29;14.17;82.80
65854;DHT22;52627;48.838;2.402;2024-02-14T11:37:04;14.19;82.72
65854;DHT22;52627;48.838;2.402;2024-02-14T11:39:36;14.21;82.69
65854;DHT22;52627;48.838;2.402;2024-02-14T11:42:05;14.21;82.67
65854;DHT22;52627;48.838;2.402;2024-02-14T11:44:33;14.23;82.62
65854;DHT22;52627;48.838;2.402;2024-02-14T11:47:00;14.25;82.63
65854;DHT22;52627;48.838;2.402;2024-02-14T11:49:28;14.27;82.65
65854;DHT22;52627;48.838;2.402;2024-02-14T11:51:55;14.29;82.60
65854;DHT22;52627;48.838;2.402;2024-02-14T11:54:24;14.33;82.60
65854;DHT22;52627;48.838;2.402;2024-02-14T11:56:51;14.36;82.56
65854;DHT22;52627;48.838;2.402;2024-02-14T11:59:18;14.36;82.50
65854;DHT22;52627;48.838;2.402;2024-02-14T12:01:47;14.37;82.49
65854;DHT22;52627;48.838;2.402;2024-02-14T12:04:18;14.38;82.46
65854;DHT22;52627;48.838;2.402;2024-02-14T12:06:46;14.40;82.41
65854;DHT22;52627;48.838;2.402;2024-02-14T12:09:13;14.42;82.40
65854;DHT22;52627;48.838;2.402;2024-02-14T12:11:42;14.45;82.41
65854;DHT22;52627;48.838;2.402;2024-02-14T12:14:11;14.47;82.35
65854;DHT22;52627;48.838;2.402;2024-02-14T12:16:39;14.49;82.30
65854;DHT22;52627;48.838;2.402;2024-02-14T12:19:15;14.53;82.31
65854;DHT22;52627;48.838;2.402;2024-02-14T12:21:44;14.56;82.29
65854;DHT22;52627;48.838;2.402;2024-02-14T12:24:12;14.58;82.22
65854;DHT22;52627;48.838;2.402;2024-02-14T12:26:42;14.60;82.15
65854;DHT22;52627;48.838;2.402;2024-02-14T12:29:11;14.62;82.10
65854;DHT22;52627;48.838;2.402;2024-02-14T12:31:42;14.65;82.05
65854;DHT22;52627;48.838;2.402;2024-02-14T12:34:11;14.68;81.98
65854;DHT22;52627;48.838;2.402;2024-02-14T12:36:39;14.69;81.90
65854;DHT22;52627;48.838;2.402;2024-02-14T12:39:07;14.71;81.88
65854;DHT22;52627;48.838;2.402;2024-02-14T12:41:36;14.72;81.80
65854;DHT22;52627;48.838;2.402;2024-02-14T12:44:07;14.73;81.75
65854;DHT22;52627;48.838;2.402;2024-02-14T12:46:34;14.75;81.70
65854;DHT22;52627;48.838;2.402;2024-02-14T12:49:05;14.76;81.63
65854;DHT22;52627;48.838;2.402;2024-02-14T12:51:33;14.79;81.60
65854;DHT22;52627;48.838;2.402;2024-02-14T12:54:05;14.85;81.62
65854;DHT22;52627;48.838;2.402;2024-02-14T12:56:34;14.87;81.50
65854;DHT22;52627;48.838;2.402;2024-02-14T12:59:02;14.90;81.41
65854;DHT22;52627;48.838;2.402;2024-02-14T13:01:30;14.92;81.32
65854;DHT22;52627;48.838;2.402;2024-02-14T13:03:57;14.94;81.26
65854;DHT22;52627;48.838;2.402;2024-02-14T13:06:27;14.96;81.16
65854;DHT22;52627;48.838;2.402;2024-02-14T13:08:54;14.99;81.11
65854;DHT22;52627;48.838;2.402;2024-02-14T13:11:23;15.05;81.04
65854;DHT22;52627;48.838;2.402;2024-02-14T13:13:50;15.11;81.01
65854;DHT22;52627;48.838;2.402;2024-02-14T13:16:18;15.17;80.87
65854;DHT22;52627;48.838;2.402;2024-02-14T13:18:46;15.24;80.80
65854;DHT22;52627;48.838;2.402;2024-02-14T13:21:13;15.30;80.74
65854;DHT22;52627;48.838;2.402;2024-02-14T13:23:41;15.37;80.64
65854;DHT22;52627;48.838;2.402;2024-02-14T13:26:09;15.44;80.53
65854;DHT22;52627;48.838;2.402;2024-02-14T13:28:37;15.51;80.42
65854;DHT22;52627;48.838;2.402;2024-02-14T13:31:04;15.55;80.26
65854;DHT22;52627;48.838;2.402;2024-02-14T13:33:31;15.63;80.21
65854;DHT22;52627;48.838;2.402;2024-02-14T13:35:59;15.71;80.10
65854;DHT22;52627;48.838;2.402;2024-02-14T13:38:27;15.79;80.03
65854;DHT22;52627;48.838;2.402;2024-02-14T13:40:56;15.86;79.83
65854;DHT22;52627;48.838;2.402;2024-02-14T13:43:23;15.91;79.76
65854;DHT22;52627;48.838;2.402;2024-02-14T13:45:52;15.97;79.66
65854;DHT22;52627;48.838;2.402;2024-02-14T13:48:19;16.02;79.49
65854;DHT22;52627;48.838;2.402;2024-02-14T13:50:47;16.05;79.26
65854;DHT22;52627;48.838;2.402;2024-02-14T13:53:16;16.08;79.12
65854;DHT22;52627;48.838;2.402;2024-02-14T13:55:44;16.12;78.98
65854;DHT22;52627;48.838;2.402;2024-02-14T13:58:12;16.17;78.90
65854;DHT22;52627;48.838;2.402;2024-02-14T14:00:44;16.23;78.80
65854;DHT22;52627;48.838;2.402;2024-02-14T14:03:12;16.28;78.63
65854;DHT22;52627;48.838;2.402;2024-02-14T14:05:39;16.32;78.51
65854;DHT22;52627;48.838;2.402;2024-02-14T14:08:07;16.33;78.29
65854;DHT22;52627;48.838;2.402;2024-02-14T14:10:35;16.31;78.17
65854;DHT22;52627;48.838;2.402;2024-02-14T14:13:02;16.32;78.06
65854;DHT22;52627;48.838;2.402;2024-02-14T14:15:31;16.31;77.95
65854;DHT22;52627;48.838;2.402;2024-02-14T14:18:00;16.30;77.85
65854;DHT22;52627;48.838;2.402;2024-02-14T14:20:27;16.28;77.65
65854;DHT22;52627;48.838;2.402;2024-02-14T14:22:55;16.25;77.51
65854;DHT22;52627;48.838;2.402;2024-02-14T14:25:23;16.26;77.46
65854;DHT22;52627;48.838;2.402;2024-02-14T14:27:50;16.31;77.34
65854;DHT22;52627;48.838;2.402;2024-02-14T14:30:18;16.35;77.20
65854;DHT22;52627;48.838;2.402;2024-02-14T14:32:46;16.39;77.13
65854;DHT22;52627;48.838;2.402;2024-02-14T14:35:13;16.46;77.00
65854;DHT22;52627;48.838;2.402;2024-02-14T14:37:41;16.50;76.86
65854;DHT22;52627;48.838;2.402;2024-02-14T14:40:09;16.53;76.75
65854;DHT22;52627;48.838;2.402;2024-02-14T14:42:38;16.58;76.62
65854;DHT22;52627;48.838;2.402;2024-02-14T14:45:05;16.71;76.56
65854;DHT22;52627;48.838;2.402;2024-02-14T14:51:20;17.02;76.64
65854;DHT22;52627;48.838;2.402;2024-02-14T14:53:48;17.10;76.30
65854;DHT22;52627;48.838;2.402;2024-02-14T14:56:15;17.08;76.14
65854;DHT22;52627;48.838;2.402;2024-02-14T14:58:43;17.03;76.02
65854;DHT22;52627;48.838;2.402;2024-02-14T15:01:10;16.98;75.93
65854;DHT22;52627;48.838;2.402;2024-02-14T15:03:41;16.92;75.82
65854;DHT22;52627;48.838;2.402;2024-02-14T15:06:09;16.86;75.76
65854;DHT22;52627;48.838;2.402;2024-02-14T15:08:36;16.80;75.69
65854;DHT22;52627;48.838;2.402;2024-02-14T15:11:04;16.73;75.58
65854;DHT22;52627;48.838;2.402;2024-02-14T15:13:32;16.68;75.54
65854;DHT22;52627;48.838;2.402;2024-02-14T15:16:00;16.64;75.49
65854;DHT22;52627;48.838;2.402;2024-02-14T15:18:30;16.59;75.44
65854;DHT22;52627;48.838;2.402;2024-02-14T15:20:58;16.55;75.36
65854;DHT22;52627;48.838;2.402;2024-02-14T15:23:26;16.52;75.39
65854;DHT22;52627;48.838;2.402;2024-02-14T15:25:53;16.47;75.31
65854;DHT22;52627;48.838;2.402;2024-02-14T15:28:30;16.45;75.30
65854;DHT22;52627;48.838;2.402;2024-02-14T15:31:07;16.42;75.27
65854;DHT22;52627;48.838;2.402;2024-02-14T15:33:54;16.38;75.23
65854;DHT22;52627;48.838;2.402;2024-02-14T15:36:24;16.34;75.22
65854;DHT22;52627;48.838;2.402;2024-02-14T15:38:52;16.30;75.18
65854;DHT22;52627;48.838;2.402;2024-02-14T15:41:20;16.26;75.20
65854;DHT22;52627;48.838;2.402;2024-02-14T15:43:47;16.23;75.20